createdAt,value
2023-02-17T00:00:14.520Z,101955.44
2023-02-17T00:02:41.179Z,101951.63
2023-02-17T00:05:08.117Z,101954.59
2023-02-17T00:07:34.981Z,101956.81
2023-02-17T00:10:01.539Z,101950.53
2023-02-17T00:12:28.091Z,101952.41
2023-02-17T00:14:54.629Z,101950.72
2023-02-17T00:17:21.192Z,101948.16
2023-02-17T00:19:47.681Z,101941.22
2023-02-17T00:22:14.254Z,101939.31
2023-02-17T00:24:41.030Z,101947.94
2023-02-17T00:27:07.681Z,101937.28
2023-02-17T00:29:34.291Z,101941.91
2023-02-17T00:32:00.937Z,101925.03
2023-02-17T00:34:28.125Z,101937.22
2023-02-17T00:36:54.862Z,101942.03
2023-02-17T00:39:21.828Z,101929.66
2023-02-17T00:41:49.031Z,101931.53
2023-02-17T00:44:21.165Z,101934.09
2023-02-17T00:46:48.153Z,101922.22
2023-02-17T00:49:17.782Z,101926.50
2023-02-17T00:51:45.558Z,101924.66
2023-02-17T00:54:12.593Z,101922.31
2023-02-17T00:56:39.450Z,101924.22
2023-02-17T00:59:06.478Z,101919.81
2023-02-17T01:01:33.342Z,101923.56
2023-02-17T01:04:00.518Z,101921.09
2023-02-17T01:06:38.204Z,101925.25
2023-02-17T01:09:08.796Z,101932.84
2023-02-17T01:11:36.318Z,101928.88
2023-02-17T01:14:08.852Z,101922.75
2023-02-17T01:16:38.402Z,101926.50
2023-02-17T01:19:08.296Z,101917.69
2023-02-17T01:21:35.964Z,101931.16
2023-02-17T01:24:05.889Z,101936.19
2023-02-17T01:26:35.022Z,101927.59
2023-02-17T01:29:01.670Z,101920.63
2023-02-17T01:31:28.883Z,101928.75
2023-02-17T01:34:01.396Z,101919.81
2023-02-17T01:36:28.392Z,101910.94
2023-02-17T01:38:55.338Z,101912.00
2023-02-17T01:41:26.561Z,101924.19
2023-02-17T01:44:11.681Z,101920.41
2023-02-17T01:46:40.290Z,101916.22
2023-02-17T01:49:20.589Z,101916.59
2023-02-17T01:51:52.602Z,101916.84
2023-02-17T01:54:30.559Z,101914.09
2023-02-17T01:57:00.181Z,101917.22
2023-02-17T01:59:28.955Z,101918.97
2023-02-17T02:02:00.786Z,101931.78
2023-02-17T02:04:31.258Z,101929.19
2023-02-17T02:06:58.082Z,101925.03
2023-02-17T02:09:31.431Z,101927.72
2023-02-17T02:11:59.967Z,101918.31
2023-02-17T02:14:31.321Z,101913.03
2023-02-17T02:18:03.145Z,101924.84
2023-02-17T02:20:51.328Z,101911.56
2023-02-17T02:23:42.375Z,101921.50
2023-02-17T02:26:43.825Z,101912.66
2023-02-17T02:29:47.223Z,101909.25
2023-02-17T02:32:43.791Z,101900.00
2023-02-17T02:35:28.122Z,101873.09
2023-02-17T02:38:13.321Z,101874.84
2023-02-17T02:40:47.732Z,101886.81
2023-02-17T02:43:15.332Z,101866.66
2023-02-17T02:45:42.467Z,101860.00
2023-02-17T02:48:09.274Z,101851.25
2023-02-17T02:50:54.084Z,101852.56
2023-02-17T02:53:39.442Z,101849.63
2023-02-17T02:56:27.496Z,101846.28
2023-02-17T02:59:08.540Z,101839.56
2023-02-17T03:01:50.475Z,101828.63
2023-02-17T03:04:36.363Z,101839.06
2023-02-17T03:07:22.211Z,101854.69
2023-02-17T03:09:54.504Z,101835.59
2023-02-17T03:12:22.505Z,101836.66
2023-02-17T03:14:54.649Z,101836.16
2023-02-17T03:17:22.560Z,101833.25
2023-02-17T03:19:50.501Z,101830.13
2023-02-17T03:22:29.909Z,101840.38
2023-02-17T03:24:56.513Z,101832.16
2023-02-17T03:27:22.992Z,101830.97
2023-02-17T03:29:49.579Z,101819.41
2023-02-17T03:32:18.447Z,101835.59
2023-02-17T03:34:45.033Z,101837.91
2023-02-17T03:37:11.656Z,101822.56
2023-02-17T03:39:38.229Z,101822.31
2023-02-17T03:42:04.862Z,101828.88
2023-02-17T03:44:31.372Z,101822.06
2023-02-17T03:46:57.974Z,101824.84
2023-02-17T03:49:24.818Z,101814.81
2023-02-17T03:51:51.336Z,101813.44
2023-02-17T03:54:17.844Z,101808.03
2023-02-17T03:56:44.421Z,101815.09
2023-02-17T03:59:11.070Z,101821.47
2023-02-17T04:01:37.735Z,101832.94
2023-02-17T04:04:04.359Z,101818.50
2023-02-17T04:06:30.922Z,101811.41
2023-02-17T04:08:57.467Z,101832.81
2023-02-17T04:11:23.976Z,101823.56
2023-02-17T04:13:50.509Z,101823.97
2023-02-17T04:16:17.248Z,101815.81
2023-02-17T04:18:44.067Z,101811.41
2023-02-17T04:21:10.607Z,101823.31
2023-02-17T04:23:37.485Z,101821.19
2023-02-17T04:26:05.777Z,101835.50
2023-02-17T04:28:32.527Z,101831.13
2023-02-17T04:31:00.008Z,101819.75
2023-02-17T04:33:27.016Z,101818.09
2023-02-17T04:35:59.450Z,101841.41
2023-02-17T04:38:27.746Z,101832.38
2023-02-17T04:40:56.152Z,101829.00
2023-02-17T04:43:24.014Z,101835.63
2023-02-17T04:45:50.664Z,101828.34
2023-02-17T04:48:17.877Z,101845.09
2023-02-17T04:50:44.494Z,101843.41
2023-02-17T04:53:11.580Z,101829.38
2023-02-17T04:55:38.145Z,101832.56
2023-02-17T04:58:04.692Z,101826.69
2023-02-17T05:00:31.253Z,101826.47
2023-02-17T05:02:57.847Z,101823.72
2023-02-17T05:05:24.642Z,101813.69
2023-02-17T05:07:51.294Z,101820.59
2023-02-17T05:10:18.731Z,101801.50
2023-02-17T05:12:45.230Z,101814.03
2023-02-17T05:15:12.614Z,101817.22
2023-02-17T05:17:39.340Z,101806.28
2023-02-17T05:20:07.272Z,101813.50
2023-02-17T05:22:33.828Z,101806.53
2023-02-17T05:25:00.515Z,101812.84
2023-02-17T05:27:27.093Z,101805.69
2023-02-17T05:29:53.618Z,101811.50
2023-02-17T05:32:20.088Z,101820.09
2023-02-17T05:34:46.590Z,101816.56
2023-02-17T05:37:13.153Z,101823.16
2023-02-17T05:39:39.813Z,101824.19
2023-02-17T05:42:06.389Z,101827.47
2023-02-17T05:44:32.969Z,101831.97
2023-02-17T05:46:59.539Z,101832.16
2023-02-17T05:49:26.074Z,101828.38
2023-02-17T05:51:52.639Z,101826.47
2023-02-17T05:54:19.223Z,101812.47
2023-02-17T05:56:45.850Z,101820.59
2023-02-17T05:59:12.439Z,101816.78
2023-02-17T06:01:38.995Z,101821.81
2023-02-17T06:04:05.563Z,101810.66
2023-02-17T06:06:32.084Z,101807.72
2023-02-17T06:08:58.632Z,101813.34
2023-02-17T06:11:25.737Z,101824.91
2023-02-17T06:13:52.291Z,101820.72
2023-02-17T06:16:18.892Z,101814.03
2023-02-17T06:18:45.438Z,101814.50
2023-02-17T06:21:11.988Z,101806.84
2023-02-17T06:23:38.528Z,101809.06
2023-02-17T06:26:05.344Z,101810.31
2023-02-17T06:28:34.259Z,101808.28
2023-02-17T06:31:01.805Z,101804.78
2023-02-17T06:33:28.763Z,101799.13
2023-02-17T06:35:55.362Z,101805.84
2023-02-17T06:38:23.099Z,101812.97
2023-02-17T06:40:49.681Z,101786.91
2023-02-17T06:43:16.276Z,101788.47
2023-02-17T06:45:42.962Z,101783.19
2023-02-17T06:48:09.596Z,101795.50
2023-02-17T06:50:36.210Z,101806.97
2023-02-17T06:53:02.760Z,101807.69
2023-02-17T06:55:29.352Z,101816.06
2023-02-17T06:57:55.968Z,101799.97
2023-02-17T07:00:22.733Z,101811.91
2023-02-17T07:02:49.441Z,101813.41
2023-02-17T07:05:16.092Z,101814.13
2023-02-17T07:07:42.620Z,101802.31
2023-02-17T07:10:09.737Z,101830.66
2023-02-17T07:12:36.358Z,101805.53
2023-02-17T07:15:03.005Z,101823.94
2023-02-17T07:17:29.569Z,101813.66
2023-02-17T07:19:56.090Z,101805.66
2023-02-17T07:22:25.392Z,101799.19
2023-02-17T07:24:52.030Z,101797.50
2023-02-17T07:27:18.586Z,101787.16
2023-02-17T07:29:45.065Z,101792.31
2023-02-17T07:32:11.687Z,101791.78
2023-02-17T07:34:38.810Z,101797.91
2023-02-17T07:37:05.514Z,101790.28
2023-02-17T07:39:32.063Z,101780.38
2023-02-17T07:42:00.908Z,101786.81
2023-02-17T07:44:28.065Z,101790.69
2023-02-17T07:46:54.669Z,101781.63
2023-02-17T07:49:21.268Z,101780.72
2023-02-17T07:51:47.856Z,101780.38
2023-02-17T07:54:15.214Z,101795.41
2023-02-17T07:56:41.958Z,101791.25
2023-02-17T07:59:12.076Z,101798.75
2023-02-17T08:01:39.039Z,101782.06
2023-02-17T08:04:05.761Z,101783.69
2023-02-17T08:06:32.383Z,101796.47
2023-02-17T08:09:17.701Z,101805.34
2023-02-17T08:12:03.036Z,101803.88
2023-02-17T08:14:31.185Z,101802.66
2023-02-17T08:16:58.137Z,101791.78
2023-02-17T08:19:27.149Z,101804.69
2023-02-17T08:21:56.448Z,101802.03
2023-02-17T08:24:24.659Z,101787.81
2023-02-17T08:26:51.536Z,101787.63
2023-02-17T08:29:20.120Z,101807.59
2023-02-17T08:31:47.420Z,101805.84
2023-02-17T08:34:14.090Z,101803.56
2023-02-17T08:36:41.400Z,101819.31
2023-02-17T08:39:12.091Z,101829.75
2023-02-17T08:41:39.615Z,101816.75
2023-02-17T08:44:14.954Z,101827.81
2023-02-17T08:46:42.671Z,101815.00
2023-02-17T08:49:09.374Z,101812.06
2023-02-17T08:51:36.279Z,101802.34
2023-02-17T08:54:06.199Z,101812.19
2023-02-17T08:56:33.595Z,101822.63
2023-02-17T08:59:00.748Z,101833.19
2023-02-17T09:01:27.362Z,101830.59
2023-02-17T09:03:56.235Z,101834.16
2023-02-17T09:06:22.785Z,101831.81
2023-02-17T09:08:50.194Z,101843.53
2023-02-17T09:11:19.007Z,101865.63
2023-02-17T09:13:45.748Z,101854.56
2023-02-17T09:16:12.430Z,101857.06
2023-02-17T09:18:39.088Z,101869.91
2023-02-17T09:21:07.859Z,101861.28
2023-02-17T09:23:34.404Z,101900.38
2023-02-17T09:26:05.466Z,101888.38
2023-02-17T09:28:32.776Z,101878.69
2023-02-17T09:30:59.522Z,101880.28
2023-02-17T09:33:30.290Z,101870.13
2023-02-17T09:35:56.969Z,101870.91
2023-02-17T09:38:24.164Z,101889.47
2023-02-17T09:40:50.800Z,101874.44
2023-02-17T09:43:22.060Z,101876.53
2023-02-17T09:46:06.258Z,101876.44
2023-02-17T09:48:38.570Z,101900.13
2023-02-17T09:51:26.863Z,101878.13
2023-02-17T09:54:08.021Z,101866.03
2023-02-17T09:56:41.413Z,101881.94
2023-02-17T09:59:26.978Z,101869.13
2023-02-17T10:01:58.420Z,101871.97
2023-02-17T10:04:34.867Z,101893.22
2023-02-17T10:07:07.922Z,101882.25
2023-02-17T10:09:47.276Z,101881.88
2023-02-17T10:12:38.576Z,101863.94
2023-02-17T10:15:13.255Z,101860.25
2023-02-17T10:18:11.624Z,101870.97
2023-02-17T10:20:53.576Z,101868.16
2023-02-17T10:23:23.639Z,101883.53
2023-02-17T10:26:39.331Z,101866.38
2023-02-17T10:29:07.415Z,101863.94
2023-02-17T10:32:05.025Z,101887.41
2023-02-17T10:34:37.012Z,101890.47
2023-02-17T10:37:12.447Z,101881.03
2023-02-17T10:39:50.923Z,101879.66
2023-02-17T10:42:34.838Z,101898.84
2023-02-17T10:45:10.854Z,101904.38
2023-02-17T10:47:39.890Z,101897.09
2023-02-17T10:50:17.049Z,101898.53
2023-02-17T10:52:43.623Z,101913.75
2023-02-17T10:55:23.599Z,101903.78
2023-02-17T10:57:58.500Z,101906.47
2023-02-17T11:00:25.146Z,101899.28
2023-02-17T11:02:52.414Z,101909.19
2023-02-17T11:05:26.463Z,101891.13
2023-02-17T11:08:28.126Z,101894.44
2023-02-17T11:11:07.206Z,101897.09
2023-02-17T11:13:38.229Z,101903.63
2023-02-17T11:16:06.255Z,101894.19
2023-02-17T11:18:38.919Z,101880.66
2023-02-17T11:21:11.518Z,101870.59
2023-02-17T11:23:52.386Z,101860.16
2023-02-17T11:26:25.370Z,101877.66
2023-02-17T11:28:52.028Z,101871.50
2023-02-17T11:31:29.845Z,101858.19
2023-02-17T11:33:57.164Z,101868.09
2023-02-17T11:36:25.551Z,101858.94
2023-02-17T11:38:52.318Z,101862.28
2023-02-17T11:41:19.641Z,101859.84
2023-02-17T11:43:54.390Z,101865.63
2023-02-17T11:46:44.002Z,101868.91
2023-02-17T11:49:32.712Z,101854.34
2023-02-17T11:52:23.098Z,101848.41
2023-02-17T11:55:27.063Z,101875.13
2023-02-17T11:58:27.585Z,101897.16
2023-02-17T12:01:01.188Z,101890.69
2023-02-17T12:04:12.612Z,101889.69
2023-02-17T12:07:06.909Z,101902.19
2023-02-17T12:10:12.446Z,101879.88
2023-02-17T12:13:14.363Z,101870.97
2023-02-17T12:16:22.532Z,101872.78
2023-02-17T12:19:16.584Z,101887.09
2023-02-17T12:22:07.614Z,101899.53
2023-02-17T12:24:42.984Z,101897.47
2023-02-17T12:27:32.932Z,101919.31
2023-02-17T12:30:19.736Z,101901.81
2023-02-17T12:33:20.445Z,101921.69
2023-02-17T12:35:55.029Z,101904.38
2023-02-17T12:38:34.403Z,101900.41
2023-02-17T12:41:25.470Z,101909.50
2023-02-17T12:43:54.734Z,101909.69
2023-02-17T12:46:31.141Z,101899.97
2023-02-17T12:49:07.495Z,101915.00
2023-02-17T12:51:39.314Z,101917.97
2023-02-17T12:54:32.178Z,101929.84
2023-02-17T12:57:10.774Z,101934.03
2023-02-17T12:59:45.895Z,101932.81
2023-02-17T13:02:16.940Z,101943.06
2023-02-17T13:04:45.891Z,101938.63
2023-02-17T13:07:22.699Z,101938.03
2023-02-17T13:09:50.671Z,101941.88
2023-02-17T13:12:17.229Z,101937.19
2023-02-17T13:14:49.948Z,101977.66
2023-02-17T13:17:31.529Z,101965.41
2023-02-17T13:20:07.465Z,101971.69
2023-02-17T13:22:34.463Z,101948.88
2023-02-17T13:25:01.127Z,101987.53
2023-02-17T13:27:27.596Z,101966.03
2023-02-17T13:30:28.900Z,101969.31
2023-02-17T13:33:28.162Z,101969.78
2023-02-17T13:35:54.797Z,101975.34
2023-02-17T13:38:31.934Z,101987.06
2023-02-17T13:41:01.701Z,101994.84
2023-02-17T13:43:30.844Z,102000.13
2023-02-17T13:46:05.858Z,101999.81
2023-02-17T13:48:34.912Z,101988.41
2023-02-17T13:51:06.487Z,101989.00
2023-02-17T13:53:39.171Z,101991.25
2023-02-17T13:56:11.788Z,101991.94
2023-02-17T13:58:40.736Z,102008.00
2023-02-17T14:01:16.726Z,102010.91
2023-02-17T14:03:47.939Z,101984.81
2023-02-17T14:06:41.028Z,102019.22
2023-02-17T14:09:21.881Z,102028.00
2023-02-17T14:11:49.382Z,102010.00
2023-02-17T14:14:15.964Z,102000.72
2023-02-17T14:16:45.833Z,102022.03
2023-02-17T14:19:19.618Z,102039.09
2023-02-17T14:21:57.261Z,102011.66
2023-02-17T14:24:27.074Z,102016.31
2023-02-17T14:27:08.545Z,101995.16
2023-02-17T14:29:43.770Z,101986.41
2023-02-17T14:32:33.556Z,102004.16
2023-02-17T14:35:26.300Z,101987.94
2023-02-17T14:37:52.903Z,101978.78
2023-02-17T14:40:24.874Z,101979.72
2023-02-17T14:42:51.897Z,101974.31
2023-02-17T14:45:18.994Z,101975.13
2023-02-17T14:47:45.964Z,101969.81
2023-02-17T14:50:13.212Z,101977.34
2023-02-17T14:52:46.266Z,101997.13
2023-02-17T14:55:38.919Z,102013.53
2023-02-17T14:58:05.550Z,102016.56
2023-02-17T15:00:32.107Z,102004.97
2023-02-17T15:02:58.636Z,102012.53
2023-02-17T15:05:25.394Z,102009.88
2023-02-17T15:07:51.983Z,102000.13
2023-02-17T15:10:20.476Z,102011.47
2023-02-17T15:12:47.438Z,102004.09
2023-02-17T15:15:15.598Z,102004.31
2023-02-17T15:17:42.129Z,102027.84
2023-02-17T15:20:10.208Z,102022.53
2023-02-17T15:22:41.409Z,102035.84
2023-02-17T15:25:19.581Z,102033.25
2023-02-17T15:27:46.606Z,102025.41
2023-02-17T15:30:16.233Z,102015.53
2023-02-17T15:32:43.213Z,102007.59
2023-02-17T15:35:16.926Z,102028.94
2023-02-17T15:37:43.474Z,102033.28
2023-02-17T15:40:15.196Z,102034.25
2023-02-17T15:42:42.784Z,102017.09
2023-02-17T15:45:13.484Z,102031.34
2023-02-17T15:47:40.224Z,102027.75
2023-02-17T15:50:13.296Z,102028.31
2023-02-17T15:52:39.877Z,102024.81
2023-02-17T15:55:06.989Z,102026.50
2023-02-17T15:57:33.563Z,102010.94
2023-02-17T16:00:00.167Z,102038.06
2023-02-17T16:02:26.791Z,102035.53
2023-02-17T16:04:53.349Z,102045.69
2023-02-17T16:07:19.907Z,102062.91
2023-02-17T16:09:46.459Z,102063.28
2023-02-17T16:12:18.951Z,102074.75
2023-02-17T16:14:45.682Z,102059.81
2023-02-17T16:17:15.833Z,102060.44
2023-02-17T16:19:42.629Z,102057.25
2023-02-17T16:22:09.168Z,102082.22
2023-02-17T16:24:35.738Z,102083.38
2023-02-17T16:27:02.524Z,102083.16
2023-02-17T16:29:29.792Z,102075.56
2023-02-17T16:31:56.488Z,102074.72
2023-02-17T16:34:25.919Z,102088.44
2023-02-17T16:36:56.307Z,102084.22
2023-02-17T16:39:23.500Z,102086.19
2023-02-17T16:41:50.117Z,102092.06
2023-02-17T16:44:18.074Z,102116.13
2023-02-17T16:46:49.770Z,102101.56
2023-02-17T16:49:31.874Z,102094.19
2023-02-17T16:52:04.784Z,102116.06
2023-02-17T16:54:33.274Z,102119.25
2023-02-17T16:57:02.194Z,102126.84
2023-02-17T16:59:28.724Z,102126.44
2023-02-17T17:01:55.307Z,102129.59
2023-02-17T17:04:21.925Z,102123.50
2023-02-17T17:06:50.786Z,102135.53
2023-02-17T17:09:22.823Z,102130.13
2023-02-17T17:11:50.112Z,102135.34
2023-02-17T17:14:16.701Z,102133.69
2023-02-17T17:16:50.768Z,102147.34
2023-02-17T17:19:18.203Z,102155.78
2023-02-17T17:21:44.822Z,102159.22
2023-02-17T17:24:11.364Z,102156.69
2023-02-17T17:26:43.828Z,102159.44
2023-02-17T17:29:13.766Z,102162.16
2023-02-17T17:31:40.343Z,102153.50
2023-02-17T17:34:06.982Z,102174.97
2023-02-17T17:36:40.172Z,102169.34
2023-02-17T17:39:11.969Z,102159.88
2023-02-17T17:41:38.403Z,102169.00
2023-02-17T17:44:04.966Z,102154.16
2023-02-17T17:46:35.481Z,102176.34
2023-02-17T17:49:05.049Z,102175.34
2023-02-17T17:51:33.855Z,102184.94
2023-02-17T17:54:00.751Z,102176.06
2023-02-17T17:56:29.923Z,102179.94
2023-02-17T17:58:57.521Z,102182.53
2023-02-17T18:01:24.460Z,102179.72
2023-02-17T18:03:51.563Z,102170.25
2023-02-17T18:06:22.744Z,102183.91
2023-02-17T18:08:51.442Z,102203.09
2023-02-17T18:11:19.649Z,102195.81
2023-02-17T18:13:50.577Z,102213.00
2023-02-17T18:16:21.716Z,102202.94
2023-02-17T18:18:49.799Z,102198.59
2023-02-17T18:21:16.714Z,102194.47
2023-02-17T18:23:43.257Z,102191.44
2023-02-17T18:26:11.869Z,102192.25
2023-02-17T18:28:38.768Z,102199.44
2023-02-17T18:31:10.464Z,102211.00
2023-02-17T18:33:37.407Z,102224.38
2023-02-17T18:36:09.205Z,102226.59
2023-02-17T18:38:36.000Z,102204.97
2023-02-17T18:41:02.748Z,102221.84
2023-02-17T18:43:29.258Z,102208.97
2023-02-17T18:45:55.910Z,102210.34
2023-02-17T18:48:22.427Z,102221.22
2023-02-17T18:50:50.433Z,102219.28
2023-02-17T18:53:18.042Z,102229.38
2023-02-17T18:55:44.579Z,102227.28
2023-02-17T18:58:12.462Z,102243.13
2023-02-17T19:00:39.217Z,102230.25
2023-02-17T19:03:05.762Z,102229.22
2023-02-17T19:05:32.238Z,102220.16
2023-02-17T19:07:58.851Z,102232.81
2023-02-17T19:10:25.403Z,102235.75
2023-02-17T19:12:51.989Z,102271.63
2023-02-17T19:15:20.880Z,102255.50
2023-02-17T19:17:48.734Z,102254.34
2023-02-17T19:20:16.983Z,102252.69
2023-02-17T19:22:43.630Z,102247.19
2023-02-17T19:25:10.302Z,102240.03
2023-02-17T19:27:39.278Z,102256.88
2023-02-17T19:30:07.569Z,102258.56
2023-02-17T19:32:34.198Z,102258.97
2023-02-17T19:35:00.765Z,102270.41
2023-02-17T19:37:27.390Z,102262.81
2023-02-17T19:39:55.196Z,102261.97
2023-02-17T19:42:21.780Z,102256.50
2023-02-17T19:44:48.307Z,102252.91
2023-02-17T19:47:14.832Z,102247.66
2023-02-17T19:49:41.402Z,102251.31
2023-02-17T19:52:07.962Z,102248.66
2023-02-17T19:54:34.519Z,102246.88
2023-02-17T19:57:01.184Z,102244.97
2023-02-17T19:59:27.957Z,102238.63
2023-02-17T20:01:54.588Z,102247.34
2023-02-17T20:04:21.177Z,102266.34
2023-02-17T20:06:48.179Z,102267.78
2023-02-17T20:09:18.063Z,102269.28
2023-02-17T20:11:46.698Z,102266.09
2023-02-17T20:14:13.602Z,102270.09
2023-02-17T20:16:40.350Z,102279.38
2023-02-17T20:19:07.172Z,102279.84
2023-02-17T20:21:35.660Z,102298.47
2023-02-17T20:24:02.511Z,102285.63
2023-02-17T20:26:33.315Z,102286.47
2023-02-17T20:29:00.948Z,102289.50
2023-02-17T20:31:27.968Z,102284.25
2023-02-17T20:33:54.838Z,102278.28
2023-02-17T20:36:22.228Z,102284.00
2023-02-17T20:38:49.835Z,102280.41
2023-02-17T20:41:19.152Z,102294.97
2023-02-17T20:43:45.820Z,102290.59
2023-02-17T20:46:28.267Z,102305.13
2023-02-17T20:48:55.255Z,102293.75
2023-02-17T20:51:22.214Z,102299.94
2023-02-17T20:53:48.805Z,102299.50
2023-02-17T20:56:20.999Z,102307.88
2023-02-17T20:58:47.654Z,102308.78
2023-02-17T21:01:14.337Z,102305.81
2023-02-17T21:03:40.944Z,102301.78
2023-02-17T21:06:20.099Z,102318.34
2023-02-17T21:08:55.482Z,102318.81
2023-02-17T21:11:22.071Z,102310.94
2023-02-17T21:13:49.203Z,102310.94
2023-02-17T21:16:18.710Z,102316.00
2023-02-17T21:18:46.945Z,102324.00
2023-02-17T21:21:13.856Z,102314.72
2023-02-17T21:23:40.427Z,102315.31
2023-02-17T21:26:10.082Z,102321.47
2023-02-17T21:28:37.255Z,102318.53
2023-02-17T21:31:04.363Z,102318.97
2023-02-17T21:33:31.089Z,102322.31
2023-02-17T21:35:57.663Z,102321.72
2023-02-17T21:38:24.181Z,102323.16
2023-02-17T21:40:51.114Z,102317.91
2023-02-17T21:43:39.333Z,102320.88
2023-02-17T21:46:10.914Z,102326.78
2023-02-17T21:48:40.349Z,102303.94
2023-02-17T21:51:09.146Z,102303.53
2023-02-17T21:53:36.343Z,102310.06
2023-02-17T21:56:03.629Z,102302.25
2023-02-17T21:58:30.681Z,102296.13
2023-02-17T22:00:57.741Z,102300.78
2023-02-17T22:03:24.348Z,102288.38
2023-02-17T22:05:51.199Z,102299.97
2023-02-17T22:08:17.955Z,102295.09
2023-02-17T22:10:44.729Z,102296.97
2023-02-17T22:13:11.349Z,102308.78
2023-02-17T22:15:38.083Z,102303.53
2023-02-17T22:18:04.663Z,102300.59
2023-02-17T22:20:31.412Z,102293.44
2023-02-17T22:22:57.928Z,102284.78
2023-02-17T22:25:24.904Z,102300.78
2023-02-17T22:27:51.423Z,102303.31
2023-02-17T22:30:18.024Z,102287.47
2023-02-17T22:32:44.509Z,102299.47
2023-02-17T22:35:11.065Z,102292.78
2023-02-17T22:37:37.748Z,102292.78
2023-02-17T22:40:06.680Z,102290.72
2023-02-17T22:42:33.192Z,102300.38
2023-02-17T22:44:59.716Z,102307.13
2023-02-17T22:47:26.262Z,102298.69
2023-02-17T22:49:52.783Z,102292.63
2023-02-17T22:52:19.364Z,102301.63
2023-02-17T22:54:45.953Z,102290.28
2023-02-17T22:57:12.438Z,102285.66
2023-02-17T22:59:39.008Z,102287.78
2023-02-17T23:02:05.493Z,102285.03
2023-02-17T23:04:32.108Z,102283.31
2023-02-17T23:06:59.142Z,102280.81
2023-02-17T23:09:25.764Z,102282.91
2023-02-17T23:11:54.356Z,102281.84
2023-02-17T23:14:26.561Z,102280.59
2023-02-17T23:16:55.551Z,102278.94
2023-02-17T23:19:23.371Z,102294.91
2023-02-17T23:21:53.450Z,102280.16
2023-02-17T23:24:21.465Z,102276.81
2023-02-17T23:26:48.465Z,102273.19
2023-02-17T23:29:15.860Z,102272.91
2023-02-17T23:31:42.699Z,102266.25
2023-02-17T23:34:11.344Z,102274.25
2023-02-17T23:36:42.743Z,102267.34
2023-02-17T23:39:10.146Z,102269.44
2023-02-17T23:41:38.098Z,102261.25
2023-02-17T23:44:06.353Z,102249.03
2023-02-17T23:46:32.980Z,102256.56
2023-02-17T23:48:59.602Z,102253.22
2023-02-17T23:51:26.234Z,102247.97
2023-02-17T23:53:52.752Z,102247.75
2023-02-17T23:56:24.789Z,102243.56
2023-02-17T23:58:51.358Z,102238.53
